sensor_id;sensor_type;location;lat;lon;timestamp;P1;durP1;ratioP1;P2;durP2;ratioP2
18661;SDS011;61528;49.456;11.098;2023-03-21T00:00:41;10.33;;;8.33;;
18661;SDS011;61528;49.456;11.098;2023-03-21T00:03:08;12.83;;;8.07;;
18661;SDS011;61528;49.456;11.098;2023-03-21T00:05:38;10.90;;;8.00;;
18661;SDS011;61528;49.456;11.098;2023-03-21T00:08:04;10.03;;;7.07;;
18661;SDS011;61528;49.456;11.098;2023-03-21T00:10:31;9.50;;;6.73;;
18661;SDS011;61528;49.456;11.098;2023-03-21T00:12:57;9.13;;;7.40;;
18661;SDS011;61528;49.456;11.098;2023-03-21T00:15:24;9.50;;;6.57;;
18661;SDS011;61528;49.456;11.098;2023-03-21T00:17:53;6.90;;;6.20;;
18661;SDS011;61528;49.456;11.098;2023-03-21T00:20:22;6.73;;;5.97;;
18661;SDS011;61528;49.456;11.098;2023-03-21T00:22:48;8.97;;;6.40;;
18661;SDS011;61528;49.456;11.098;2023-03-21T00:25:16;7.73;;;5.50;;
18661;SDS011;61528;49.456;11.098;2023-03-21T00:27:42;7.93;;;5.77;;
18661;SDS011;61528;49.456;11.098;2023-03-21T00:30:08;5.97;;;4.53;;
18661;SDS011;61528;49.456;11.098;2023-03-21T00:32:35;4.83;;;4.00;;
18661;SDS011;61528;49.456;11.098;2023-03-21T00:35:01;4.30;;;3.90;;
18661;SDS011;61528;49.456;11.098;2023-03-21T00:37:28;5.33;;;4.27;;
18661;SDS011;61528;49.456;11.098;2023-03-21T00:39:54;5.63;;;3.53;;
18661;SDS011;61528;49.456;11.098;2023-03-21T00:42:20;6.87;;;3.80;;
18661;SDS011;61528;49.456;11.098;2023-03-21T00:44:46;4.57;;;3.73;;
18661;SDS011;61528;49.456;11.098;2023-03-21T00:47:13;4.47;;;3.57;;
18661;SDS011;61528;49.456;11.098;2023-03-21T00:49:39;3.97;;;3.57;;
18661;SDS011;61528;49.456;11.098;2023-03-21T00:52:06;5.37;;;3.83;;
18661;SDS011;61528;49.456;11.098;2023-03-21T00:54:33;5.00;;;3.73;;
18661;SDS011;61528;49.456;11.098;2023-03-21T00:57:00;4.70;;;3.40;;
18661;SDS011;61528;49.456;11.098;2023-03-21T00:59:27;6.00;;;3.70;;
18661;SDS011;61528;49.456;11.098;2023-03-21T01:01:53;5.53;;;3.60;;
18661;SDS011;61528;49.456;11.098;2023-03-21T01:04:20;5.23;;;3.80;;
18661;SDS011;61528;49.456;11.098;2023-03-21T01:06:50;5.60;;;3.33;;
18661;SDS011;61528;49.456;11.098;2023-03-21T01:09:18;5.43;;;3.83;;
18661;SDS011;61528;49.456;11.098;2023-03-21T01:11:45;4.77;;;3.20;;
18661;SDS011;61528;49.456;11.098;2023-03-21T01:14:12;4.53;;;3.57;;
18661;SDS011;61528;49.456;11.098;2023-03-21T01:16:38;4.97;;;3.00;;
18661;SDS011;61528;49.456;11.098;2023-03-21T01:19:05;7.00;;;4.00;;
18661;SDS011;61528;49.456;11.098;2023-03-21T01:21:32;5.77;;;3.20;;
18661;SDS011;61528;49.456;11.098;2023-03-21T01:24:00;7.27;;;4.17;;
18661;SDS011;61528;49.456;11.098;2023-03-21T01:26:26;6.80;;;3.97;;
18661;SDS011;61528;49.456;11.098;2023-03-21T01:28:52;4.27;;;3.20;;
18661;SDS011;61528;49.456;11.098;2023-03-21T01:31:19;5.93;;;3.10;;
18661;SDS011;61528;49.456;11.098;2023-03-21T01:33:45;6.50;;;3.60;;
18661;SDS011;61528;49.456;11.098;2023-03-21T01:36:17;4.57;;;3.03;;
18661;SDS011;61528;49.456;11.098;2023-03-21T01:38:43;4.73;;;2.87;;
18661;SDS011;61528;49.456;11.098;2023-03-21T01:41:24;5.83;;;3.90;;
18661;SDS011;61528;49.456;11.098;2023-03-21T01:43:51;6.87;;;3.30;;
18661;SDS011;61528;49.456;11.098;2023-03-21T01:48:49;5.17;;;3.73;;
18661;SDS011;61528;49.456;11.098;2023-03-21T01:51:16;4.67;;;3.13;;
18661;SDS011;61528;49.456;11.098;2023-03-21T01:53:42;6.10;;;3.13;;
18661;SDS011;61528;49.456;11.098;2023-03-21T01:56:15;4.03;;;2.83;;
18661;SDS011;61528;49.456;11.098;2023-03-21T01:58:43;4.50;;;2.90;;
18661;SDS011;61528;49.456;11.098;2023-03-21T02:01:10;6.20;;;2.80;;
18661;SDS011;61528;49.456;11.098;2023-03-21T02:03:38;5.33;;;2.70;;
18661;SDS011;61528;49.456;11.098;2023-03-21T02:06:16;5.57;;;2.60;;
18661;SDS011;61528;49.456;11.098;2023-03-21T02:08:45;3.97;;;2.53;;
18661;SDS011;61528;49.456;11.098;2023-03-21T02:11:12;3.63;;;2.53;;
18661;SDS011;61528;49.456;11.098;2023-03-21T02:13:39;5.43;;;2.63;;
18661;SDS011;61528;49.456;11.098;2023-03-21T02:18:48;4.67;;;2.90;;
18661;SDS011;61528;49.456;11.098;2023-03-21T02:29:16;5.13;;;2.93;;
18661;SDS011;61528;49.456;11.098;2023-03-21T02:31:58;6.00;;;2.70;;
18661;SDS011;61528;49.456;11.098;2023-03-21T02:36:56;4.70;;;3.00;;
18661;SDS011;61528;49.456;11.098;2023-03-21T02:39:30;5.40;;;2.93;;
18661;SDS011;61528;49.456;11.098;2023-03-21T02:42:04;3.87;;;2.63;;
18661;SDS011;61528;49.456;11.098;2023-03-21T02:47:01;5.33;;;3.20;;
18661;SDS011;61528;49.456;11.098;2023-03-21T02:49:29;4.73;;;3.20;;
18661;SDS011;61528;49.456;11.098;2023-03-21T02:51:57;5.43;;;3.17;;
18661;SDS011;61528;49.456;11.098;2023-03-21T02:54:24;3.27;;;2.77;;
18661;SDS011;61528;49.456;11.098;2023-03-21T02:56:51;5.17;;;3.13;;
18661;SDS011;61528;49.456;11.098;2023-03-21T02:59:20;5.23;;;2.80;;
18661;SDS011;61528;49.456;11.098;2023-03-21T03:01:46;6.80;;;3.07;;
18661;SDS011;61528;49.456;11.098;2023-03-21T03:10:13;4.70;;;3.03;;
18661;SDS011;61528;49.456;11.098;2023-03-21T03:14:55;3.40;;;3.10;;
18661;SDS011;61528;49.456;11.098;2023-03-21T03:25:43;6.70;;;4.30;;
18661;SDS011;61528;49.456;11.098;2023-03-21T03:28:13;6.60;;;4.33;;
18661;SDS011;61528;49.456;11.098;2023-03-21T03:30:40;5.23;;;4.33;;
18661;SDS011;61528;49.456;11.098;2023-03-21T03:33:07;7.33;;;4.80;;
18661;SDS011;61528;49.456;11.098;2023-03-21T03:35:35;8.07;;;4.80;;
18661;SDS011;61528;49.456;11.098;2023-03-21T03:40:47;5.80;;;4.77;;
18661;SDS011;61528;49.456;11.098;2023-03-21T03:43:16;5.73;;;4.47;;
18661;SDS011;61528;49.456;11.098;2023-03-21T03:45:47;6.77;;;4.60;;
18661;SDS011;61528;49.456;11.098;2023-03-21T03:48:27;7.23;;;4.70;;
18661;SDS011;61528;49.456;11.098;2023-03-21T03:50:56;6.17;;;4.73;;
18661;SDS011;61528;49.456;11.098;2023-03-21T03:53:29;5.83;;;5.20;;
18661;SDS011;61528;49.456;11.098;2023-03-21T03:56:01;6.50;;;4.77;;
18661;SDS011;61528;49.456;11.098;2023-03-21T03:58:27;5.90;;;4.80;;
18661;SDS011;61528;49.456;11.098;2023-03-21T04:00:55;5.73;;;4.43;;
18661;SDS011;61528;49.456;11.098;2023-03-21T04:03:22;7.00;;;5.20;;
18661;SDS011;61528;49.456;11.098;2023-03-21T04:05:48;5.77;;;4.73;;
18661;SDS011;61528;49.456;11.098;2023-03-21T04:08:15;6.33;;;4.43;;
18661;SDS011;61528;49.456;11.098;2023-03-21T04:10:42;6.13;;;4.57;;
18661;SDS011;61528;49.456;11.098;2023-03-21T04:13:08;5.63;;;4.70;;
18661;SDS011;61528;49.456;11.098;2023-03-21T04:15:35;7.93;;;4.70;;
18661;SDS011;61528;49.456;11.098;2023-03-21T04:18:02;5.63;;;4.77;;
18661;SDS011;61528;49.456;11.098;2023-03-21T04:20:28;5.20;;;4.40;;
18661;SDS011;61528;49.456;11.098;2023-03-21T04:22:56;5.97;;;4.73;;
18661;SDS011;61528;49.456;11.098;2023-03-21T04:25:22;6.77;;;4.60;;
18661;SDS011;61528;49.456;11.098;2023-03-21T04:27:49;6.97;;;4.80;;
18661;SDS011;61528;49.456;11.098;2023-03-21T04:30:15;4.63;;;4.23;;
18661;SDS011;61528;49.456;11.098;2023-03-21T04:32:43;7.70;;;4.80;;
18661;SDS011;61528;49.456;11.098;2023-03-21T04:35:21;9.10;;;4.63;;
18661;SDS011;61528;49.456;11.098;2023-03-21T04:37:48;6.20;;;4.77;;
18661;SDS011;61528;49.456;11.098;2023-03-21T04:40:14;6.40;;;4.97;;
18661;SDS011;61528;49.456;11.098;2023-03-21T04:42:43;5.97;;;4.80;;
18661;SDS011;61528;49.456;11.098;2023-03-21T04:45:10;6.93;;;4.67;;
18661;SDS011;61528;49.456;11.098;2023-03-21T04:47:36;6.43;;;4.23;;
18661;SDS011;61528;49.456;11.098;2023-03-21T04:50:03;7.43;;;5.23;;
18661;SDS011;61528;49.456;11.098;2023-03-21T04:52:29;7.33;;;5.03;;
18661;SDS011;61528;49.456;11.098;2023-03-21T04:54:56;6.83;;;4.83;;
18661;SDS011;61528;49.456;11.098;2023-03-21T04:57:22;6.80;;;4.83;;
18661;SDS011;61528;49.456;11.098;2023-03-21T04:59:48;5.70;;;4.67;;
18661;SDS011;61528;49.456;11.098;2023-03-21T05:02:14;6.10;;;5.50;;
18661;SDS011;61528;49.456;11.098;2023-03-21T05:04:42;6.47;;;4.90;;
18661;SDS011;61528;49.456;11.098;2023-03-21T05:07:08;6.77;;;4.73;;
18661;SDS011;61528;49.456;11.098;2023-03-21T05:09:34;7.73;;;4.63;;
18661;SDS011;61528;49.456;11.098;2023-03-21T05:12:00;6.77;;;4.90;;
18661;SDS011;61528;49.456;11.098;2023-03-21T05:14:27;6.43;;;4.63;;
18661;SDS011;61528;49.456;11.098;2023-03-21T05:16:53;9.70;;;5.00;;
18661;SDS011;61528;49.456;11.098;2023-03-21T05:19:28;7.47;;;5.20;;
18661;SDS011;61528;49.456;11.098;2023-03-21T05:22:00;7.50;;;5.63;;
18661;SDS011;61528;49.456;11.098;2023-03-21T05:24:28;9.03;;;5.23;;
18661;SDS011;61528;49.456;11.098;2023-03-21T05:26:55;8.60;;;5.50;;
18661;SDS011;61528;49.456;11.098;2023-03-21T05:29:26;7.87;;;5.33;;
18661;SDS011;61528;49.456;11.098;2023-03-21T05:31:52;7.30;;;5.57;;
18661;SDS011;61528;49.456;11.098;2023-03-21T05:34:18;7.27;;;5.10;;
18661;SDS011;61528;49.456;11.098;2023-03-21T05:36:45;8.23;;;5.30;;
18661;SDS011;61528;49.456;11.098;2023-03-21T05:39:11;9.07;;;5.37;;
18661;SDS011;61528;49.456;11.098;2023-03-21T05:41:37;8.80;;;5.57;;
18661;SDS011;61528;49.456;11.098;2023-03-21T05:44:03;10.30;;;5.27;;
18661;SDS011;61528;49.456;11.098;2023-03-21T05:46:30;9.60;;;6.03;;
18661;SDS011;61528;49.456;11.098;2023-03-21T05:48:56;8.57;;;5.47;;
18661;SDS011;61528;49.456;11.098;2023-03-21T05:51:22;6.40;;;5.10;;
18661;SDS011;61528;49.456;11.098;2023-03-21T05:53:48;5.93;;;5.03;;
18661;SDS011;61528;49.456;11.098;2023-03-21T05:56:16;6.57;;;5.20;;
18661;SDS011;61528;49.456;11.098;2023-03-21T05:58:42;6.67;;;4.80;;
18661;SDS011;61528;49.456;11.098;2023-03-21T06:01:08;5.87;;;5.10;;
18661;SDS011;61528;49.456;11.098;2023-03-21T06:03:36;7.17;;;5.57;;
18661;SDS011;61528;49.456;11.098;2023-03-21T06:06:02;8.07;;;5.43;;
18661;SDS011;61528;49.456;11.098;2023-03-21T06:08:29;6.60;;;5.90;;
18661;SDS011;61528;49.456;11.098;2023-03-21T06:10:56;7.83;;;5.60;;
18661;SDS011;61528;49.456;11.098;2023-03-21T06:13:23;6.87;;;5.63;;
18661;SDS011;61528;49.456;11.098;2023-03-21T06:15:49;8.77;;;5.90;;
18661;SDS011;61528;49.456;11.098;2023-03-21T06:18:15;7.53;;;5.50;;
18661;SDS011;61528;49.456;11.098;2023-03-21T06:20:41;6.43;;;5.03;;
18661;SDS011;61528;49.456;11.098;2023-03-21T06:23:08;8.57;;;5.63;;
18661;SDS011;61528;49.456;11.098;2023-03-21T06:25:34;7.23;;;5.50;;
18661;SDS011;61528;49.456;11.098;2023-03-21T06:28:00;7.07;;;5.60;;
18661;SDS011;61528;49.456;11.098;2023-03-21T06:30:26;7.70;;;6.00;;
18661;SDS011;61528;49.456;11.098;2023-03-21T06:32:52;6.37;;;5.53;;
18661;SDS011;61528;49.456;11.098;2023-03-21T06:35:19;9.50;;;5.90;;
18661;SDS011;61528;49.456;11.098;2023-03-21T06:37:45;9.80;;;6.13;;
18661;SDS011;61528;49.456;11.098;2023-03-21T06:40:13;7.27;;;5.63;;
18661;SDS011;61528;49.456;11.098;2023-03-21T06:42:40;8.20;;;5.60;;
18661;SDS011;61528;49.456;11.098;2023-03-21T06:45:06;8.30;;;6.30;;
18661;SDS011;61528;49.456;11.098;2023-03-21T06:47:32;9.40;;;6.53;;
18661;SDS011;61528;49.456;11.098;2023-03-21T06:49:58;8.40;;;6.13;;
18661;SDS011;61528;49.456;11.098;2023-03-21T06:52:25;8.93;;;6.27;;
18661;SDS011;61528;49.456;11.098;2023-03-21T06:54:51;8.17;;;6.30;;
18661;SDS011;61528;49.456;11.098;2023-03-21T06:57:17;9.60;;;6.17;;
18661;SDS011;61528;49.456;11.098;2023-03-21T06:59:45;11.70;;;6.80;;
18661;SDS011;61528;49.456;11.098;2023-03-21T07:02:12;8.37;;;6.80;;
18661;SDS011;61528;49.456;11.098;2023-03-21T07:04:38;9.43;;;6.60;;
18661;SDS011;61528;49.456;11.098;2023-03-21T07:07:04;8.23;;;5.57;;
18661;SDS011;61528;49.456;11.098;2023-03-21T07:09:30;8.73;;;6.10;;
18661;SDS011;61528;49.456;11.098;2023-03-21T07:11:56;8.90;;;5.97;;
18661;SDS011;61528;49.456;11.098;2023-03-21T07:14:22;9.90;;;5.90;;
18661;SDS011;61528;49.456;11.098;2023-03-21T07:16:49;11.43;;;6.43;;
18661;SDS011;61528;49.456;11.098;2023-03-21T07:19:15;9.70;;;6.30;;
18661;SDS011;61528;49.456;11.098;2023-03-21T07:21:42;8.40;;;6.00;;
18661;SDS011;61528;49.456;11.098;2023-03-21T07:24:08;9.50;;;6.50;;
18661;SDS011;61528;49.456;11.098;2023-03-21T07:26:34;8.57;;;6.17;;
18661;SDS011;61528;49.456;11.098;2023-03-21T07:29:00;10.40;;;6.53;;
18661;SDS011;61528;49.456;11.098;2023-03-21T07:31:26;11.47;;;6.77;;
18661;SDS011;61528;49.456;11.098;2023-03-21T07:33:53;17.53;;;6.23;;
18661;SDS011;61528;49.456;11.098;2023-03-21T07:36:19;16.10;;;6.70;;
18661;SDS011;61528;49.456;11.098;2023-03-21T07:38:46;10.07;;;6.10;;
18661;SDS011;61528;49.456;11.098;2023-03-21T07:41:12;9.00;;;5.73;;
18661;SDS011;61528;49.456;11.098;2023-03-21T07:43:38;12.30;;;6.47;;
18661;SDS011;61528;49.456;11.098;2023-03-21T07:46:04;15.00;;;9.80;;
18661;SDS011;61528;49.456;11.098;2023-03-21T07:48:31;12.33;;;6.53;;
18661;SDS011;61528;49.456;11.098;2023-03-21T07:50:57;10.30;;;6.20;;
18661;SDS011;61528;49.456;11.098;2023-03-21T07:53:24;8.77;;;5.80;;
18661;SDS011;61528;49.456;11.098;2023-03-21T07:55:50;8.20;;;6.03;;
18661;SDS011;61528;49.456;11.098;2023-03-21T07:58:18;11.37;;;6.40;;
18661;SDS011;61528;49.456;11.098;2023-03-21T08:00:44;11.93;;;6.17;;
18661;SDS011;61528;49.456;11.098;2023-03-21T08:03:12;9.50;;;6.10;;
18661;SDS011;61528;49.456;11.098;2023-03-21T08:05:38;10.03;;;6.33;;
18661;SDS011;61528;49.456;11.098;2023-03-21T08:08:04;10.40;;;6.13;;
18661;SDS011;61528;49.456;11.098;2023-03-21T08:10:31;7.10;;;4.90;;
18661;SDS011;61528;49.456;11.098;2023-03-21T08:12:57;8.00;;;4.27;;
18661;SDS011;61528;49.456;11.098;2023-03-21T08:15:23;9.13;;;5.00;;
18661;SDS011;61528;49.456;11.098;2023-03-21T08:17:49;6.30;;;4.50;;
18661;SDS011;61528;49.456;11.098;2023-03-21T08:20:17;9.17;;;5.03;;
18661;SDS011;61528;49.456;11.098;2023-03-21T08:22:45;6.87;;;4.80;;
18661;SDS011;61528;49.456;11.098;2023-03-21T08:25:12;6.47;;;4.80;;
18661;SDS011;61528;49.456;11.098;2023-03-21T08:27:41;9.23;;;5.70;;
18661;SDS011;61528;49.456;11.098;2023-03-21T08:30:11;6.83;;;5.10;;
18661;SDS011;61528;49.456;11.098;2023-03-21T08:32:39;7.27;;;4.83;;
18661;SDS011;61528;49.456;11.098;2023-03-21T08:35:08;10.87;;;6.50;;
18661;SDS011;61528;49.456;11.098;2023-03-21T08:37:38;5.47;;;4.17;;
18661;SDS011;61528;49.456;11.098;2023-03-21T08:40:06;8.43;;;4.83;;
18661;SDS011;61528;49.456;11.098;2023-03-21T08:42:35;7.13;;;4.50;;
18661;SDS011;61528;49.456;11.098;2023-03-21T08:45:01;5.00;;;4.03;;
18661;SDS011;61528;49.456;11.098;2023-03-21T08:47:29;6.70;;;4.00;;
18661;SDS011;61528;49.456;11.098;2023-03-21T08:49:55;8.73;;;5.27;;
18661;SDS011;61528;49.456;11.098;2023-03-21T08:52:23;5.73;;;4.10;;
18661;SDS011;61528;49.456;11.098;2023-03-21T08:54:49;6.80;;;4.07;;
18661;SDS011;61528;49.456;11.098;2023-03-21T08:57:15;11.90;;;6.00;;
18661;SDS011;61528;49.456;11.098;2023-03-21T08:59:42;9.83;;;5.43;;
18661;SDS011;61528;49.456;11.098;2023-03-21T09:02:09;10.33;;;6.07;;
18661;SDS011;61528;49.456;11.098;2023-03-21T09:04:35;7.57;;;5.00;;
18661;SDS011;61528;49.456;11.098;2023-03-21T09:07:01;8.60;;;4.77;;
18661;SDS011;61528;49.456;11.098;2023-03-21T09:09:29;8.53;;;5.27;;
18661;SDS011;61528;49.456;11.098;2023-03-21T09:11:55;7.60;;;4.50;;
18661;SDS011;61528;49.456;11.098;2023-03-21T09:14:21;10.80;;;5.00;;
18661;SDS011;61528;49.456;11.098;2023-03-21T09:16:47;7.30;;;4.47;;
18661;SDS011;61528;49.456;11.098;2023-03-21T09:19:16;4.23;;;3.53;;
18661;SDS011;61528;49.456;11.098;2023-03-21T09:21:42;7.07;;;4.10;;
18661;SDS011;61528;49.456;11.098;2023-03-21T09:24:09;7.40;;;4.37;;
18661;SDS011;61528;49.456;11.098;2023-03-21T09:26:37;6.60;;;3.57;;
18661;SDS011;61528;49.456;11.098;2023-03-21T09:29:05;6.73;;;4.00;;
18661;SDS011;61528;49.456;11.098;2023-03-21T09:31:31;8.47;;;4.30;;
18661;SDS011;61528;49.456;11.098;2023-03-21T09:33:58;6.47;;;3.60;;
18661;SDS011;61528;49.456;11.098;2023-03-21T09:36:24;7.03;;;3.87;;
18661;SDS011;61528;49.456;11.098;2023-03-21T09:38:52;6.97;;;4.20;;
18661;SDS011;61528;49.456;11.098;2023-03-21T09:46:26;7.87;;;4.93;;
18661;SDS011;61528;49.456;11.098;2023-03-21T09:48:58;6.77;;;4.30;;
18661;SDS011;61528;49.456;11.098;2023-03-21T09:51:30;6.20;;;3.73;;
18661;SDS011;61528;49.456;11.098;2023-03-21T09:53:58;5.60;;;3.83;;
18661;SDS011;61528;49.456;11.098;2023-03-21T09:56:28;6.20;;;4.50;;
18661;SDS011;61528;49.456;11.098;2023-03-21T09:58:55;7.43;;;3.37;;
18661;SDS011;61528;49.456;11.098;2023-03-21T10:01:29;3.93;;;3.40;;
18661;SDS011;61528;49.456;11.098;2023-03-21T10:04:06;8.93;;;4.43;;
18661;SDS011;61528;49.456;11.098;2023-03-21T10:06:34;6.83;;;4.33;;
18661;SDS011;61528;49.456;11.098;2023-03-21T10:14:13;4.90;;;3.37;;
18661;SDS011;61528;49.456;11.098;2023-03-21T10:16:45;5.10;;;3.30;;
18661;SDS011;61528;49.456;11.098;2023-03-21T10:19:13;6.17;;;3.80;;
18661;SDS011;61528;49.456;11.098;2023-03-21T10:21:44;3.93;;;3.00;;
18661;SDS011;61528;49.456;11.098;2023-03-21T10:24:12;5.90;;;3.20;;
18661;SDS011;61528;49.456;11.098;2023-03-21T10:26:39;4.73;;;3.00;;
18661;SDS011;61528;49.456;11.098;2023-03-21T10:29:06;4.37;;;2.97;;
18661;SDS011;61528;49.456;11.098;2023-03-21T10:31:35;6.13;;;3.00;;
18661;SDS011;61528;49.456;11.098;2023-03-21T10:34:02;5.30;;;3.27;;
18661;SDS011;61528;49.456;11.098;2023-03-21T10:36:30;4.30;;;3.10;;
18661;SDS011;61528;49.456;11.098;2023-03-21T10:39:04;4.40;;;3.37;;
18661;SDS011;61528;49.456;11.098;2023-03-21T10:41:32;5.17;;;2.40;;
18661;SDS011;61528;49.456;11.098;2023-03-21T10:46:30;4.17;;;3.50;;
18661;SDS011;61528;49.456;11.098;2023-03-21T10:48:57;4.53;;;3.30;;
18661;SDS011;61528;49.456;11.098;2023-03-21T10:51:27;6.33;;;3.50;;
18661;SDS011;61528;49.456;11.098;2023-03-21T10:54:15;5.13;;;3.03;;
18661;SDS011;61528;49.456;11.098;2023-03-21T10:56:44;5.03;;;3.13;;
18661;SDS011;61528;49.456;11.098;2023-03-21T10:59:16;4.57;;;3.03;;
18661;SDS011;61528;49.456;11.098;2023-03-21T11:01:45;4.83;;;3.13;;
18661;SDS011;61528;49.456;11.098;2023-03-21T11:04:13;5.23;;;2.90;;
18661;SDS011;61528;49.456;11.098;2023-03-21T11:06:49;4.40;;;2.80;;
18661;SDS011;61528;49.456;11.098;2023-03-21T11:09:16;6.30;;;2.90;;
18661;SDS011;61528;49.456;11.098;2023-03-21T11:12:09;3.33;;;2.97;;
18661;SDS011;61528;49.456;11.098;2023-03-21T11:16:57;4.93;;;3.27;;
18661;SDS011;61528;49.456;11.098;2023-03-21T11:19:32;6.47;;;3.33;;
18661;SDS011;61528;49.456;11.098;2023-03-21T11:22:06;3.63;;;3.30;;
18661;SDS011;61528;49.456;11.098;2023-03-21T11:24:33;4.67;;;3.40;;
18661;SDS011;61528;49.456;11.098;2023-03-21T11:27:00;4.97;;;3.40;;
18661;SDS011;61528;49.456;11.098;2023-03-21T11:32:00;3.83;;;3.10;;
18661;SDS011;61528;49.456;11.098;2023-03-21T11:34:32;6.20;;;3.70;;
18661;SDS011;61528;49.456;11.098;2023-03-21T11:36:59;4.70;;;3.60;;
18661;SDS011;61528;49.456;11.098;2023-03-21T11:39:34;4.13;;;3.30;;
18661;SDS011;61528;49.456;11.098;2023-03-21T11:42:03;4.63;;;3.83;;
18661;SDS011;61528;49.456;11.098;2023-03-21T11:44:38;5.20;;;3.87;;
18661;SDS011;61528;49.456;11.098;2023-03-21T11:47:07;6.63;;;3.67;;
18661;SDS011;61528;49.456;11.098;2023-03-21T11:49:35;3.80;;;3.40;;
18661;SDS011;61528;49.456;11.098;2023-03-21T11:54:33;5.00;;;3.90;;
18661;SDS011;61528;49.456;11.098;2023-03-21T12:00:05;5.10;;;3.80;;
18661;SDS011;61528;49.456;11.098;2023-03-21T12:05:28;6.27;;;3.93;;
18661;SDS011;61528;49.456;11.098;2023-03-21T12:10:39;3.57;;;3.23;;
18661;SDS011;61528;49.456;11.098;2023-03-21T12:21:04;5.80;;;3.70;;
18661;SDS011;61528;49.456;11.098;2023-03-21T12:23:35;4.00;;;3.60;;
18661;SDS011;61528;49.456;11.098;2023-03-21T12:26:13;4.07;;;3.23;;
18661;SDS011;61528;49.456;11.098;2023-03-21T12:28:49;4.17;;;3.60;;
18661;SDS011;61528;49.456;11.098;2023-03-21T12:34:15;4.77;;;4.20;;
18661;SDS011;61528;49.456;11.098;2023-03-21T12:39:39;6.33;;;3.80;;
18661;SDS011;61528;49.456;11.098;2023-03-21T12:44:39;4.57;;;3.50;;
18661;SDS011;61528;49.456;11.098;2023-03-21T12:47:30;3.90;;;3.37;;
18661;SDS011;61528;49.456;11.098;2023-03-21T12:49:56;5.97;;;3.40;;
18661;SDS011;61528;49.456;11.098;2023-03-21T12:52:27;6.20;;;3.53;;
18661;SDS011;61528;49.456;11.098;2023-03-21T12:54:59;4.40;;;3.47;;
18661;SDS011;61528;49.456;11.098;2023-03-21T12:57:34;4.40;;;3.40;;
18661;SDS011;61528;49.456;11.098;2023-03-21T13:07:47;3.83;;;3.30;;
18661;SDS011;61528;49.456;11.098;2023-03-21T13:20:54;4.17;;;3.50;;
18661;SDS011;61528;49.456;11.098;2023-03-21T13:23:22;3.67;;;3.37;;
18661;SDS011;61528;49.456;11.098;2023-03-21T13:25:49;4.67;;;3.23;;
18661;SDS011;61528;49.456;11.098;2023-03-21T13:28:20;4.03;;;3.63;;
18661;SDS011;61528;49.456;11.098;2023-03-21T13:30:47;6.53;;;3.83;;
18661;SDS011;61528;49.456;11.098;2023-03-21T13:33:14;3.80;;;3.40;;
18661;SDS011;61528;49.456;11.098;2023-03-21T13:35:42;3.27;;;2.97;;
18661;SDS011;61528;49.456;11.098;2023-03-21T13:38:22;3.80;;;3.07;;
18661;SDS011;61528;49.456;11.098;2023-03-21T13:40:51;3.43;;;3.13;;
18661;SDS011;61528;49.456;11.098;2023-03-21T13:44:04;4.60;;;3.20;;
18661;SDS011;61528;49.456;11.098;2023-03-21T13:46:14;5.17;;;2.97;;
18661;SDS011;61528;49.456;11.098;2023-03-21T13:59:11;3.20;;;2.90;;
18661;SDS011;61528;49.456;11.098;2023-03-21T14:01:39;3.23;;;2.73;;
18661;SDS011;61528;49.456;11.098;2023-03-21T14:04:10;2.90;;;2.60;;
18661;SDS011;61528;49.456;11.098;2023-03-21T14:06:40;3.50;;;2.80;;
18661;SDS011;61528;49.456;11.098;2023-03-21T14:09:08;3.90;;;3.47;;
18661;SDS011;61528;49.456;11.098;2023-03-21T14:11:37;3.87;;;3.27;;
18661;SDS011;61528;49.456;11.098;2023-03-21T14:14:03;3.27;;;2.90;;
18661;SDS011;61528;49.456;11.098;2023-03-21T14:16:30;3.80;;;2.90;;
18661;SDS011;61528;49.456;11.098;2023-03-21T14:19:03;3.00;;;2.20;;
18661;SDS011;61528;49.456;11.098;2023-03-21T14:21:32;2.63;;;1.97;;
18661;SDS011;61528;49.456;11.098;2023-03-21T14:24:00;2.70;;;2.30;;
18661;SDS011;61528;49.456;11.098;2023-03-21T14:26:28;2.53;;;2.33;;
18661;SDS011;61528;49.456;11.098;2023-03-21T14:28:55;2.90;;;2.20;;
18661;SDS011;61528;49.456;11.098;2023-03-21T14:31:21;2.40;;;2.20;;
18661;SDS011;61528;49.456;11.098;2023-03-21T14:33:51;3.83;;;2.37;;
18661;SDS011;61528;49.456;11.098;2023-03-21T14:36:19;2.80;;;1.80;;
18661;SDS011;61528;49.456;11.098;2023-03-21T14:41:43;3.03;;;1.70;;
18661;SDS011;61528;49.456;11.098;2023-03-21T14:46:39;5.93;;;4.37;;
18661;SDS011;61528;49.456;11.098;2023-03-21T14:49:10;1.87;;;1.77;;
18661;SDS011;61528;49.456;11.098;2023-03-21T14:51:36;3.33;;;2.10;;
18661;SDS011;61528;49.456;11.098;2023-03-21T14:54:03;2.40;;;1.70;;
18661;SDS011;61528;49.456;11.098;2023-03-21T14:56:30;2.53;;;1.80;;
18661;SDS011;61528;49.456;11.098;2023-03-21T14:58:58;2.20;;;2.00;;
18661;SDS011;61528;49.456;11.098;2023-03-21T15:01:28;2.00;;;1.80;;
18661;SDS011;61528;49.456;11.098;2023-03-21T15:03:56;3.77;;;1.97;;
18661;SDS011;61528;49.456;11.098;2023-03-21T15:06:23;2.10;;;1.90;;
18661;SDS011;61528;49.456;11.098;2023-03-21T15:08:56;2.20;;;1.97;;
18661;SDS011;61528;49.456;11.098;2023-03-21T15:11:32;2.00;;;1.90;;
18661;SDS011;61528;49.456;11.098;2023-03-21T15:13:59;2.97;;;2.23;;
18661;SDS011;61528;49.456;11.098;2023-03-21T15:16:26;3.37;;;2.00;;
18661;SDS011;61528;49.456;11.098;2023-03-21T15:21:39;2.83;;;1.77;;
18661;SDS011;61528;49.456;11.098;2023-03-21T15:24:09;2.80;;;1.73;;
18661;SDS011;61528;49.456;11.098;2023-03-21T15:26:39;2.17;;;1.90;;
18661;SDS011;61528;49.456;11.098;2023-03-21T15:29:08;2.87;;;1.70;;
18661;SDS011;61528;49.456;11.098;2023-03-21T15:31:35;7.73;;;2.10;;
18661;SDS011;61528;49.456;11.098;2023-03-21T15:34:03;2.37;;;2.00;;
18661;SDS011;61528;49.456;11.098;2023-03-21T15:36:34;2.23;;;1.97;;
18661;SDS011;61528;49.456;11.098;2023-03-21T15:39:05;3.20;;;1.97;;
18661;SDS011;61528;49.456;11.098;2023-03-21T15:41:33;3.23;;;1.80;;
18661;SDS011;61528;49.456;11.098;2023-03-21T15:44:11;3.57;;;2.27;;
18661;SDS011;61528;49.456;11.098;2023-03-21T15:46:50;2.03;;;1.80;;
18661;SDS011;61528;49.456;11.098;2023-03-21T15:49:24;2.40;;;1.90;;
18661;SDS011;61528;49.456;11.098;2023-03-21T15:51:56;2.77;;;2.10;;
18661;SDS011;61528;49.456;11.098;2023-03-21T15:54:24;2.93;;;2.40;;
18661;SDS011;61528;49.456;11.098;2023-03-21T15:56:54;1.80;;;1.70;;
18661;SDS011;61528;49.456;11.098;2023-03-21T15:59:22;3.50;;;1.70;;
18661;SDS011;61528;49.456;11.098;2023-03-21T16:01:50;1.83;;;1.60;;
18661;SDS011;61528;49.456;11.098;2023-03-21T16:04:16;1.87;;;1.60;;
18661;SDS011;61528;49.456;11.098;2023-03-21T16:06:50;2.50;;;1.60;;
18661;SDS011;61528;49.456;11.098;2023-03-21T16:09:17;3.23;;;1.70;;
18661;SDS011;61528;49.456;11.098;2023-03-21T16:11:51;2.43;;;2.20;;
18661;SDS011;61528;49.456;11.098;2023-03-21T16:14:19;1.93;;;1.77;;
18661;SDS011;61528;49.456;11.098;2023-03-21T16:16:46;3.97;;;2.27;;
18661;SDS011;61528;49.456;11.098;2023-03-21T16:19:12;2.53;;;1.77;;
18661;SDS011;61528;49.456;11.098;2023-03-21T16:21:39;1.70;;;1.60;;
18661;SDS011;61528;49.456;11.098;2023-03-21T16:24:06;1.97;;;1.50;;
18661;SDS011;61528;49.456;11.098;2023-03-21T16:26:33;1.93;;;1.50;;
18661;SDS011;61528;49.456;11.098;2023-03-21T16:29:00;2.70;;;1.60;;
18661;SDS011;61528;49.456;11.098;2023-03-21T16:31:28;1.87;;;1.50;;
18661;SDS011;61528;49.456;11.098;2023-03-21T16:33:54;1.60;;;1.33;;
18661;SDS011;61528;49.456;11.098;2023-03-21T16:36:22;1.40;;;1.30;;
18661;SDS011;61528;49.456;11.098;2023-03-21T16:38:49;1.83;;;1.20;;